Time;durP1;ratioP1;P1;durP2;ratioP2;P2;SDS_P1;SDS_P2;PMS_P1;PMS_P2;Temp;Humidity;BMP_temperature;BMP_pressure;BME280_temperature;BME280_humidity;BME280_pressure;Samples;Min_cycle;Max_cycle;Signal;HPM_P1;HPM_P2
2023/08/23 00:02:01;;;;;;;;;13.00;11.00;;;;;26.25;100.00;98754.34;6297322;27;96951;-66
2023/08/23 00:05:05;;;;;;;;;11.50;10.50;;;;;26.22;100.00;98751.44;6285036;27;96702;-66
2023/08/23 00:08:08;;;;;;;;;11.80;10.40;;;;;26.24;100.00;98763.00;6288628;27;96327;-65
2023/08/23 00:11:11;;;;;;;;;11.00;11.00;;;;;26.26;100.00;98757.94;6270074;27;96569;-66
2023/08/23 00:14:16;;;;;;;;;11.50;11.00;;;;;26.17;100.00;98743.28;6286737;27;96362;-65
2023/08/23 00:17:19;;;;;;;;;10.00;10.00;;;;;25.95;100.00;98732.44;6287368;27;96335;-65
2023/08/23 00:20:22;;;;;;;;;13.00;12.00;;;;;25.99;100.00;98738.94;6288557;27;96486;-65
2023/08/23 00:23:25;;;;;;;;;13.00;11.60;;;;;25.93;100.00;98746.56;6285572;27;97695;-65
2023/08/23 00:26:29;;;;;;;;;11.50;10.00;;;;;25.84;100.00;98754.88;6277717;27;96399;-66
2023/08/23 00:29:34;;;;;;;;;12.00;11.00;;;;;25.71;100.00;98739.25;6274124;27;97316;-65
2023/08/23 00:32:37;;;;;;;;;12.20;11.20;;;;;25.72;100.00;98746.41;6268978;27;98423;-65
2023/08/23 00:35:41;;;;;;;;;11.00;10.00;;;;;25.72;100.00;98742.81;6269810;27;96647;-65
2023/08/23 00:38:44;;;;;;;;;11.60;11.00;;;;;25.76;100.00;98746.56;6286670;27;96338;-65
2023/08/23 00:41:47;;;;;;;;;12.40;11.00;;;;;25.76;100.00;98741.84;6286585;27;96492;-66
2023/08/23 00:44:52;;;;;;;;;12.00;12.00;;;;;25.76;100.00;98752.06;6266871;27;96885;-65
2023/08/23 00:47:55;;;;;;;;;12.00;11.00;;;;;25.72;100.00;98762.16;6288764;27;96452;-65
2023/08/23 00:51:00;;;;;;;;;12.00;11.80;;;;;25.67;100.00;98760.38;6286778;27;97934;-65
2023/08/23 00:54:05;;;;;;;;;14.00;12.00;;;;;25.71;100.00;98760.53;6270379;27;97549;-66
2023/08/23 00:57:09;;;;;;;;;13.00;12.40;;;;;25.74;100.00;98760.72;6288626;27;96446;-66
2023/08/23 01:00:17;;;;;;;;;12.20;11.20;;;;;25.74;100.00;98757.13;6252287;27;97273;-65
2023/08/23 01:03:20;;;;;;;;;11.33;11.33;;;;;25.76;100.00;98754.84;6251958;27;96858;-66
2023/08/23 01:06:35;;;;;;;;;14.00;13.00;;;;;25.74;100.00;98755.19;6283407;27;96457;-65
2023/08/23 01:09:48;;;;;;;;;12.60;11.60;;;;;25.61;100.00;98745.09;6260188;27;98848;-65
2023/08/23 01:13:00;;;;;;;;;12.40;12.00;;;;;25.49;100.00;98742.13;6286563;27;96342;-65
2023/08/23 01:16:09;;;;;;;;;12.00;11.00;;;;;25.56;100.00;98730.66;6286956;27;96398;-65
2023/08/23 01:19:33;;;;;;;;;13.00;12.25;;;;;25.56;100.00;98723.16;6267626;27;97176;-65
2023/08/23 01:22:41;;;;;;;;;13.00;12.80;;;;;25.46;100.00;98715.97;6287434;27;96986;-65
2023/08/23 01:25:48;;;;;;;;;12.40;11.40;;;;;25.42;100.00;98711.44;6266225;27;96826;-65
2023/08/23 01:28:53;;;;;;;;;13.40;12.40;;;;;25.50;100.00;98701.53;6266539;27;97272;-66
2023/08/23 01:32:05;;;;;;;;;14.00;13.00;;;;;25.51;100.00;98703.97;6285790;27;96941;-66
2023/08/23 01:35:15;;;;;;;;;14.00;13.00;;;;;25.50;100.00;98691.31;6284807;27;96943;-66
2023/08/23 01:38:22;;;;;;;;;15.80;14.00;;;;;25.48;100.00;98693.56;6267665;27;97261;-65
2023/08/23 01:41:27;;;;;;;;;13.60;12.60;;;;;25.56;100.00;98692.00;6250548;27;98617;-66
2023/08/23 01:44:30;;;;;;;;;17.00;16.00;;;;;25.61;100.00;98702.88;6287789;27;96392;-66
2023/08/23 01:47:34;;;;;;;;;16.00;15.00;;;;;25.54;100.00;98711.63;6268184;27;96560;-65
2023/08/23 01:50:38;;;;;;;;;15.40;15.00;;;;;25.55;100.00;98704.19;6287363;27;96925;-65
2023/08/23 01:53:41;;;;;;;;;16.00;14.00;;;;;25.54;100.00;98706.09;6284301;27;96547;-65
2023/08/23 01:56:45;;;;;;;;;17.40;15.40;;;;;25.42;100.00;98698.44;6286910;27;96344;-65
2023/08/23 01:59:49;;;;;;;;;16.40;16.00;;;;;25.53;100.00;98696.19;6250052;27;96861;-65
2023/08/23 02:02:53;;;;;;;;;15.00;14.00;;;;;25.53;100.00;98693.41;6275544;27;96448;-65
2023/08/23 02:05:56;;;;;;;;;16.80;15.00;;;;;25.54;100.00;98694.22;6245359;27;96852;-65
2023/08/23 02:08:59;;;;;;;;;16.40;15.00;;;;;25.56;100.00;98694.75;6261237;27;96426;-65
2023/08/23 02:12:04;;;;;;;;;17.00;16.00;;;;;25.59;100.00;98686.63;6265912;27;96395;-66
2023/08/23 02:15:08;;;;;;;;;17.00;15.00;;;;;25.66;100.00;98680.59;6257170;27;96400;-66
2023/08/23 02:18:12;;;;;;;;;14.40;14.40;;;;;25.67;100.00;98679.47;6221326;27;96660;-65
2023/08/23 02:21:19;;;;;;;;;14.00;14.00;;;;;25.63;100.00;98686.78;6264381;27;96692;-65
2023/08/23 02:24:22;;;;;;;;;16.50;15.50;;;;;25.63;100.00;98690.38;6274072;27;96901;-65
2023/08/23 02:27:26;;;;;;;;;15.00;14.00;;;;;25.64;100.00;98685.66;6241651;27;96794;-66
2023/08/23 02:30:31;;;;;;;;;14.00;13.00;;;;;25.72;100.00;98688.41;6240819;27;98645;-66
2023/08/23 02:33:34;;;;;;;;;15.00;14.00;;;;;25.79;100.00;98682.41;6263475;27;96273;-65
2023/08/23 02:36:37;;;;;;;;;14.80;13.60;;;;;25.79;100.00;98693.47;6245921;27;99344;-66
2023/08/23 02:39:42;;;;;;;;;13.40;12.40;;;;;25.80;100.00;98693.09;6230885;27;96871;-66
2023/08/23 02:42:46;;;;;;;;;16.00;14.50;;;;;25.86;100.00;98691.00;6266010;27;96335;-65
2023/08/23 02:45:49;;;;;;;;;13.00;12.00;;;;;25.93;100.00;98693.28;6248011;27;98603;-65
2023/08/23 02:48:52;;;;;;;;;14.00;13.60;;;;;25.99;100.00;98695.56;6246854;27;96722;-66
2023/08/23 02:51:56;;;;;;;;;13.60;12.00;;;;;26.03;100.00;98692.94;6264744;27;96924;-66
2023/08/23 02:54:59;;;;;;;;;16.00;15.00;;;;;25.99;100.00;98694.72;6264750;27;96357;-65
2023/08/23 02:58:04;;;;;;;;;15.00;14.00;;;;;26.00;100.00;98688.84;6246452;27;98549;-66
2023/08/23 03:01:07;;;;;;;;;14.40;13.00;;;;;26.03;100.00;98699.28;6263678;27;97451;-65
2023/08/23 03:04:10;;;;;;;;;15.00;14.00;;;;;25.99;100.00;98703.84;6251769;27;96681;-66
2023/08/23 03:07:13;;;;;;;;;13.00;13.00;;;;;26.00;100.00;98705.44;6291740;27;96815;-66
2023/08/23 03:10:17;;;;;;;;;16.00;15.00;;;;;26.03;100.00;98703.97;6289715;27;96246;-65
2023/08/23 03:13:22;;;;;;;;;18.00;15.60;;;;;26.02;100.00;98719.75;6256230;27;96754;-65
2023/08/23 03:16:26;;;;;;;;;15.00;13.00;;;;;26.01;100.00;98726.41;6289461;27;96729;-66
2023/08/23 03:19:29;;;;;;;;;15.00;14.00;;;;;26.06;100.00;98715.19;6271652;27;96364;-66
2023/08/23 03:22:33;;;;;;;;;17.60;15.80;;;;;26.08;100.00;98728.69;6273001;27;96339;-66
2023/08/23 03:25:36;;;;;;;;;17.00;16.00;;;;;26.08;100.00;98731.44;6247180;27;96675;-66
2023/08/23 03:28:40;;;;;;;;;15.60;15.00;;;;;26.12;100.00;98722.16;6271537;27;96422;-66
2023/08/23 03:31:45;;;;;;;;;14.00;13.00;;;;;26.13;100.00;98717.47;6271461;27;96281;-65
2023/08/23 03:34:53;;;;;;;;;17.20;15.20;;;;;26.13;100.00;98717.47;6272794;27;96391;-66
2023/08/23 03:37:57;;;;;;;;;16.80;15.00;;;;;26.20;100.00;98709.47;6254823;27;97307;-66
2023/08/23 03:41:00;;;;;;;;;15.75;15.00;;;;;26.26;100.00;98719.25;6284498;27;96663;-66
2023/08/23 03:44:04;;;;;;;;;15.00;14.00;;;;;26.26;100.00;98716.47;6270418;27;96495;-66
2023/08/23 03:47:08;;;;;;;;;15.20;14.00;;;;;26.27;100.00;98715.34;6287822;27;96406;-66
2023/08/23 03:50:12;;;;;;;;;16.00;15.00;;;;;26.19;100.00;98713.38;6259744;27;96766;-66
2023/08/23 03:53:15;;;;;;;;;15.60;14.80;;;;;26.08;100.00;98726.72;6271174;27;96899;-66
2023/08/23 03:56:19;;;;;;;;;18.00;17.00;;;;;26.07;100.00;98725.09;6269092;27;97248;-66
2023/08/23 03:59:23;;;;;;;;;15.40;14.00;;;;;26.07;100.00;98732.56;6266087;27;96444;-66
2023/08/23 04:02:26;;;;;;;;;18.25;15.25;;;;;26.09;100.00;98736.66;6279478;27;96700;-66
2023/08/23 04:05:30;;;;;;;;;19.00;17.00;;;;;25.97;100.00;98744.78;6284094;27;96258;-66
2023/08/23 04:08:33;;;;;;;;;17.60;16.00;;;;;25.93;100.00;98743.00;6264518;27;96988;-66
2023/08/23 04:11:36;;;;;;;;;17.00;15.00;;;;;25.98;100.00;98732.59;6283823;27;97552;-66
2023/08/23 04:14:41;;;;;;;;;18.40;17.00;;;;;26.04;100.00;98741.53;6247620;27;96717;-66
2023/08/23 04:17:44;;;;;;;;;18.00;16.00;;;;;26.03;100.00;98742.66;6287536;27;96715;-66
2023/08/23 04:20:58;;;;;;;;;15.40;14.80;;;;;26.01;100.00;98733.88;6267402;27;96676;-65
2023/08/23 04:24:02;;;;;;;;;18.60;16.60;;;;;25.90;100.00;98730.66;6265264;27;96683;-66
2023/08/23 04:27:05;;;;;;;;;18.00;16.00;;;;;25.96;100.00;98740.38;6266107;27;96443;-66
2023/08/23 04:30:11;;;;;;;;;17.00;17.00;;;;;25.99;100.00;98752.75;6280591;27;97328;-66
2023/08/23 04:33:16;;;;;;;;;20.00;17.00;;;;;26.04;100.00;98755.34;6262497;27;96556;-66
2023/08/23 04:36:19;;;;;;;;;20.40;17.60;;;;;26.05;100.00;98745.88;6244566;27;96670;-66
2023/08/23 04:39:22;;;;;;;;;20.80;17.80;;;;;26.06;100.00;98740.03;6277572;27;96891;-66
2023/08/23 04:42:26;;;;;;;;;19.20;17.60;;;;;26.13;100.00;98743.13;6271721;27;98688;-66
2023/08/23 04:45:30;;;;;;;;;18.40;17.00;;;;;26.18;100.00;98759.56;6272436;27;96801;-66
2023/08/23 04:48:34;;;;;;;;;22.00;18.00;;;;;26.14;100.00;98763.28;6271347;27;96332;-66
2023/08/23 04:51:37;;;;;;;;;22.00;20.00;;;;;26.15;100.00;98771.25;6260243;27;97555;-66
2023/08/23 04:54:40;;;;;;;;;20.60;19.00;;;;;26.21;100.00;98780.19;6258016;27;97728;-66
2023/08/23 04:57:44;;;;;;;;;15.00;14.00;;;;;26.20;100.00;98773.84;6247775;27;96902;-66
2023/08/23 05:00:49;;;;;;;;;22.00;19.00;;;;;26.26;100.00;98780.03;6258563;27;97423;-66
2023/08/23 05:03:52;;;;;;;;;18.20;16.80;;;;;26.32;100.00;98789.78;6282439;27;96331;-66
2023/08/23 05:06:57;;;;;;;;;22.25;20.00;;;;;26.35;100.00;98786.38;6261138;27;97593;-66
2023/08/23 05:10:00;;;;;;;;;20.25;18.25;;;;;26.39;100.00;98789.31;6249065;27;98558;-66
2023/08/23 05:13:05;;;;;;;;;19.80;17.40;;;;;26.40;100.00;98786.19;6278125;27;96929;-66
2023/08/23 05:16:10;;;;;;;;;19.20;18.20;;;;;26.48;100.00;98796.44;6264848;27;97799;-66
2023/08/23 05:19:13;;;;;;;;;21.60;19.00;;;;;26.45;100.00;98796.28;6261902;27;96362;-66
2023/08/23 05:22:18;;;;;;;;;23.50;20.50;;;;;26.39;100.00;98806.69;6263098;27;96815;-66
2023/08/23 05:25:22;;;;;;;;;24.40;21.80;;;;;26.32;100.00;98795.31;6256717;27;97161;-67
2023/08/23 05:28:29;;;;;;;;;27.00;23.00;;;;;26.26;100.00;98808.50;6263690;27;96298;-66
2023/08/23 05:31:35;;;;;;;;;30.00;26.00;;;;;26.30;100.00;98803.13;6248386;27;97745;-67
2023/08/23 05:34:40;;;;;;;;;25.20;22.00;;;;;26.44;100.00;98797.44;6265282;27;96363;-66
2023/08/23 05:37:43;;;;;;;;;27.60;24.20;;;;;26.56;100.00;98803.09;6266583;27;96490;-66
2023/08/23 05:40:47;;;;;;;;;29.60;27.00;;;;;26.67;100.00;98798.84;6282676;27;97520;-66
2023/08/23 05:43:51;;;;;;;;;34.50;28.50;;;;;26.81;100.00;98799.44;6245074;27;96789;-66
2023/08/23 05:46:55;;;;;;;;;34.25;28.75;;;;;26.91;100.00;98795.53;6226043;27;97723;-66
2023/08/23 05:49:58;;;;;;;;;30.33;26.33;;;;;27.09;100.00;98805.38;6255446;27;98472;-66
2023/08/23 05:53:09;;;;;;;;;36.60;30.20;;;;;27.30;100.00;98800.72;6245025;27;97414;-67
2023/08/23 05:56:12;;;;;;;;;32.00;28.50;;;;;27.38;100.00;98804.59;6256698;27;96991;-67
2023/08/23 05:59:15;;;;;;;;;29.00;26.00;;;;;27.52;100.00;98803.22;6271920;27;96992;-66
2023/08/23 06:02:19;;;;;;;;;34.00;30.00;;;;;27.50;100.00;98810.28;6249612;27;97066;-66
2023/08/23 06:05:23;;;;;;;;;36.60;30.00;;;;;27.40;100.00;98808.66;6267049;27;96727;-66
2023/08/23 06:08:26;;;;;;;;;32.60;28.00;;;;;27.37;100.00;98811.25;6266128;27;96705;-66
2023/08/23 06:11:29;;;;;;;;;33.50;30.00;;;;;27.35;100.00;98814.38;6284562;27;96837;-66
2023/08/23 06:14:33;;;;;;;;;32.80;28.40;;;;;27.43;100.00;98809.94;6267640;27;96256;-66
2023/08/23 06:17:37;;;;;;;;;33.20;30.00;;;;;27.56;100.00;98809.72;6283854;27;97007;-66
2023/08/23 06:20:43;;;;;;;;;31.00;28.25;;;;;27.66;100.00;98811.28;6286769;27;96364;-66
2023/08/23 06:23:46;;;;;;;;;31.75;25.75;;;;;27.69;100.00;98816.16;6282767;27;96268;-66
2023/08/23 06:26:50;;;;;;;;;31.00;28.50;;;;;27.67;100.00;98801.84;6284103;27;96391;-66
2023/08/23 06:29:54;;;;;;;;;35.00;28.40;;;;;27.86;100.00;98807.72;6265188;27;96647;-66
2023/08/23 06:33:00;;;;;;;;;32.00;28.50;;;;;28.06;100.00;98814.41;6233931;27;97524;-66
2023/08/23 06:36:05;;;;;;;;;30.00;27.25;;;;;28.04;100.00;98821.47;6284635;27;96953;-66
2023/08/23 06:39:10;;;;;;;;;29.25;25.00;;;;;28.06;100.00;98830.25;6287739;27;96667;-66
2023/08/23 06:42:33;;;;;;;;;33.00;27.80;;;;;28.09;100.00;98819.31;6259591;27;97055;-66
2023/08/23 06:45:37;;;;;;;;;31.80;27.00;;;;;28.17;100.00;98814.84;6268224;27;97916;-66
2023/08/23 06:48:42;;;;;;;;;32.00;26.50;;;;;28.31;100.00;98810.66;6277802;27;96517;-66
2023/08/23 06:51:45;;;;;;;;;31.25;29.25;;;;;28.47;100.00;98815.56;6266455;27;96583;-66
2023/08/23 06:54:49;;;;;;;;;29.00;26.00;;;;;28.62;100.00;98817.69;6283585;27;96441;-66
2023/08/23 06:57:52;;;;;;;;;33.00;30.00;;;;;28.64;100.00;98818.16;6286508;27;96426;-66
2023/08/23 07:00:58;;;;;;;;;32.00;28.00;;;;;28.81;100.00;98821.59;6249922;27;96693;-66
2023/08/23 07:04:02;;;;;;;;;33.40;26.80;;;;;28.98;100.00;98823.34;6269075;27;96413;-66
2023/08/23 07:07:06;;;;;;;;;36.00;31.00;;;;;29.01;100.00;98825.47;6285631;27;97380;-66
2023/08/23 07:10:09;;;;;;;;;32.80;27.80;;;;;29.21;100.00;98832.06;6286755;27;96488;-66
2023/08/23 07:13:29;;;;;;;;;28.75;27.50;;;;;29.29;100.00;98834.75;6284917;27;97843;-66
2023/08/23 07:16:32;;;;;;;;;32.80;28.00;;;;;29.52;100.00;98848.19;6267696;27;96624;-66
2023/08/23 07:19:37;;;;;;;;;31.00;26.00;;;;;29.65;100.00;98838.72;6270399;27;96401;-66
2023/08/23 07:22:40;;;;;;;;;30.33;27.67;;;;;29.51;100.00;98847.41;6271406;27;96934;-66
2023/08/23 07:25:44;;;;;;;;;36.00;30.00;;;;;29.54;100.00;98838.34;6272321;27;96530;-66
2023/08/23 07:28:47;;;;;;;;;32.00;29.00;;;;;29.79;100.00;98838.34;6269037;27;97222;-66
2023/08/23 07:31:50;;;;;;;;;33.50;28.00;;;;;29.95;100.00;98847.63;6289990;27;96457;-66
2023/08/23 07:34:55;;;;;;;;;30.60;26.20;;;;;29.87;100.00;98843.75;6289053;27;97998;-66
2023/08/23 07:37:58;;;;;;;;;29.00;25.00;;;;;30.28;100.00;98852.97;6270391;27;96392;-66
2023/08/23 07:41:03;;;;;;;;;30.50;28.00;;;;;30.67;100.00;98852.16;6288971;27;96363;-66
2023/08/23 07:44:06;;;;;;;;;31.60;27.00;;;;;30.70;100.00;98854.22;6272946;27;97379;-66
2023/08/23 07:47:09;;;;;;;;;29.00;27.00;;;;;30.82;100.00;98856.13;6293556;27;96427;-66
2023/08/23 07:50:14;;;;;;;;;33.40;29.00;;;;;31.01;100.00;98858.22;6292552;27;96334;-66
2023/08/23 07:53:17;;;;;;;;;31.00;26.00;;;;;31.04;100.00;98863.91;6269129;27;96262;-66
2023/08/23 07:56:20;;;;;;;;;32.80;29.20;;;;;30.98;100.00;98868.13;6293726;27;96942;-66
2023/08/23 07:59:23;;;;;;;;;34.00;30.00;;;;;31.16;100.00;98868.59;6270608;27;98464;-66
2023/08/23 08:02:29;;;;;;;;;30.00;24.40;;;;;31.22;100.00;98876.34;6265241;27;97613;-67
2023/08/23 08:05:35;;;;;;;;;31.75;28.00;;;;;31.47;100.00;98868.63;6275192;27;96399;-67
2023/08/23 08:08:41;;;;;;;;;30.60;28.00;;;;;31.72;100.00;98872.81;6268490;27;97005;-67
2023/08/23 08:11:44;;;;;;;;;26.20;24.80;;;;;32.28;100.00;98880.09;6274359;27;97302;-67
2023/08/23 08:14:47;;;;;;;;;29.40;25.80;;;;;32.49;100.00;98884.16;6254741;27;97084;-67
2023/08/23 08:17:51;;;;;;;;;28.00;25.00;;;;;32.69;100.00;98887.00;6236434;27;97045;-67
2023/08/23 08:20:56;;;;;;;;;27.60;25.00;;;;;33.06;100.00;98893.69;6256519;27;96951;-67
2023/08/23 08:23:59;;;;;;;;;33.00;29.40;;;;;33.47;100.00;98895.69;6269479;27;97095;-68
2023/08/23 08:27:03;;;;;;;;;29.00;26.40;;;;;33.50;100.00;98894.13;6270444;27;97040;-67
2023/08/23 08:30:07;;;;;;;;;26.80;24.80;;;;;33.53;100.00;98907.34;6267463;27;98659;-67
2023/08/23 08:33:10;;;;;;;;;31.00;26.00;;;;;33.36;100.00;98905.84;6265597;27;98671;-68
2023/08/23 08:36:15;;;;;;;;;28.20;25.60;;;;;33.09;100.00;98909.69;6266958;27;98488;-67
2023/08/23 08:39:18;;;;;;;;;29.00;25.00;;;;;32.83;100.00;98907.63;6268092;27;96879;-68
2023/08/23 08:42:22;;;;;;;;;31.00;28.00;;;;;32.67;100.00;98909.69;6267445;27;96694;-67
2023/08/23 08:45:25;;;;;;;;;31.60;29.00;;;;;32.57;100.00;98910.22;6284486;27;96579;-67
2023/08/23 08:48:28;;;;;;;;;28.00;26.00;;;;;32.41;100.00;98901.91;6289976;27;96579;-68
2023/08/23 08:51:36;;;;;;;;;27.00;25.00;;;;;32.14;100.00;98908.50;6283740;27;96654;-67
2023/08/23 08:54:42;;;;;;;;;30.00;26.67;;;;;31.77;100.00;98906.00;6267302;27;98810;-68
2023/08/23 08:57:49;;;;;;;;;29.00;24.00;;;;;31.51;100.00;98919.66;6286805;27;97091;-67
2023/08/23 09:00:54;;;;;;;;;27.75;24.75;;;;;31.28;100.00;98902.75;6265871;27;96617;-67
2023/08/23 09:03:58;;;;;;;;;31.60;27.00;;;;;31.27;100.00;98908.69;6261358;27;100145;-67
2023/08/23 09:07:02;;;;;;;;;26.40;25.00;;;;;31.06;100.00;98917.28;6285232;27;96310;-68
2023/08/23 09:10:06;;;;;;;;;31.20;27.00;;;;;30.97;100.00;98920.19;6284357;27;96368;-67
2023/08/23 09:13:09;;;;;;;;;33.60;30.00;;;;;30.90;100.00;98925.56;6267694;27;98686;-68
2023/08/23 09:16:14;;;;;;;;;33.00;26.00;;;;;30.62;100.00;98919.19;6283687;27;96526;-67
2023/08/23 09:19:17;;;;;;;;;32.25;28.25;;;;;30.53;100.00;98922.13;6288208;27;96623;-67
2023/08/23 09:22:22;;;;;;;;;32.50;29.50;;;;;30.40;100.00;98914.09;6266281;27;99872;-67
2023/08/23 09:25:26;;;;;;;;;36.00;29.00;;;;;30.09;100.00;98907.25;6279536;27;96360;-67
2023/08/23 09:28:29;;;;;;;;;31.60;29.40;;;;;30.06;100.00;98907.94;6267066;27;98538;-68
2023/08/23 09:31:32;;;;;;;;;29.00;26.00;;;;;30.17;100.00;98921.34;6285316;27;96547;-68
2023/08/23 09:34:35;;;;;;;;;31.60;27.40;;;;;30.16;100.00;98914.16;6273807;27;97119;-67
2023/08/23 09:37:44;;;;;;;;;33.50;29.75;;;;;30.25;100.00;98915.66;6263912;27;96473;-68
2023/08/23 09:40:48;;;;;;;;;34.00;28.00;;;;;30.40;100.00;98914.09;6285165;27;97560;-68
2023/08/23 09:43:54;;;;;;;;;33.00;29.00;;;;;30.54;100.00;98917.38;6265906;27;98401;-67
2023/08/23 09:47:00;;;;;;;;;35.20;30.00;;;;;30.51;100.00;98918.88;6284660;27;96373;-67
2023/08/23 09:50:04;;;;;;;;;30.50;26.00;;;;;30.46;100.00;98919.13;6283768;27;97516;-68
2023/08/23 09:53:16;;;;;;;;;35.00;28.00;;;;;30.37;100.00;98931.50;6286801;27;97107;-68
2023/08/23 09:56:20;;;;;;;;;31.00;27.00;;;;;30.30;100.00;98925.75;6281157;27;96269;-68
2023/08/23 09:59:24;;;;;;;;;34.50;30.00;;;;;30.19;100.00;98922.63;6282871;27;97964;-68
2023/08/23 10:02:29;;;;;;;;;29.00;26.00;;;;;30.06;100.00;98932.94;6285314;27;97660;-67
2023/08/23 10:05:36;;;;;;;;;35.40;29.00;;;;;29.95;100.00;98931.00;6283223;27;96720;-68
2023/08/23 10:08:40;;;;;;;;;37.40;32.00;;;;;29.94;100.00;98924.63;6265680;27;99219;-68
2023/08/23 10:11:44;;;;;;;;;37.80;31.60;;;;;29.81;100.00;98922.97;6285148;27;96627;-68
2023/08/23 10:14:59;;;;;;;;;38.20;30.00;;;;;29.73;100.00;98929.47;6244890;27;96907;-67
2023/08/23 10:18:05;;;;;;;;;36.20;29.80;;;;;29.60;100.00;98941.72;6249037;27;96586;-67
2023/08/23 10:21:09;;;;;;;;;34.00;29.00;;;;;29.60;100.00;98920.31;6265805;27;97142;-67
2023/08/23 10:24:14;;;;;;;;;34.00;31.00;;;;;29.59;100.00;98926.22;6259050;27;98532;-67
2023/08/23 10:27:18;;;;;;;;;32.50;29.75;;;;;29.57;100.00;98920.19;6266150;27;96424;-67
2023/08/23 10:30:25;;;;;;;;;34.00;30.00;;;;;29.58;100.00;98924.59;6265533;27;97827;-67
2023/08/23 10:33:31;;;;;;;;;36.40;31.40;;;;;29.67;100.00;98923.31;6279017;27;96728;-67
2023/08/23 10:36:37;;;;;;;;;37.50;31.75;;;;;29.76;100.00;98923.22;6282419;27;96625;-67
2023/08/23 10:39:49;;;;;;;;;38.00;31.00;;;;;29.78;100.00;98918.13;6279823;27;96839;-67
2023/08/23 10:42:52;;;;;;;;;34.80;30.00;;;;;29.82;100.00;98921.81;6277883;27;96540;-68
2023/08/23 10:45:57;;;;;;;;;34.60;30.00;;;;;30.29;100.00;98922.16;6267128;27;96814;-68
2023/08/23 10:49:02;;;;;;;;;32.20;30.00;;;;;31.18;100.00;98916.41;6285327;27;97444;-67
2023/08/23 10:52:07;;;;;;;;;30.20;27.60;;;;;31.88;100.00;98924.97;6249234;27;96937;-67
2023/08/23 10:55:12;;;;;;;;;35.33;29.33;;;;;32.59;100.00;98930.22;6281543;27;97283;-68
2023/08/23 10:58:16;;;;;;;;;34.20;30.00;;;;;32.99;100.00;98935.44;6287854;27;96563;-68
2023/08/23 11:01:19;;;;;;;;;37.00;31.00;;;;;33.01;100.00;98933.09;6266724;27;96952;-68
2023/08/23 11:04:23;;;;;;;;;30.00;27.50;;;;;33.17;100.00;98947.00;6252776;27;99226;-68
2023/08/23 11:07:26;;;;;;;;;31.80;29.00;;;;;33.35;100.00;98942.56;6289231;27;96593;-68
2023/08/23 11:10:31;;;;;;;;;28.50;27.00;;;;;33.74;100.00;98932.09;6257253;27;98649;-67
2023/08/23 11:13:35;;;;;;;;;30.40;28.00;;;;;34.12;100.00;98931.06;6270405;27;96957;-67
2023/08/23 11:16:39;;;;;;;;;29.80;25.80;;;;;34.50;100.00;98949.66;6283928;27;96952;-67
2023/08/23 11:19:43;;;;;;;;;32.50;27.25;;;;;34.80;100.00;98947.69;6285081;27;96464;-68
2023/08/23 11:22:47;;;;;;;;;36.50;30.00;;;;;35.10;100.00;98942.03;6270317;27;97206;-68
2023/08/23 11:25:53;;;;;;;;;29.00;25.00;;;;;35.43;100.00;98942.00;6268627;27;96356;-68
2023/08/23 11:28:56;;;;;;;;;31.25;29.25;;;;;35.68;100.00;98956.28;6249743;27;96671;-68
2023/08/23 11:32:00;;;;;;;;;31.00;29.00;;;;;35.52;100.00;98953.72;6286768;27;96341;-68
2023/08/23 11:35:06;;;;;;;;;30.75;27.50;;;;;35.66;100.00;98929.84;6270579;27;96941;-68
2023/08/23 11:38:09;;;;;;;;;32.80;29.80;;;;;35.88;100.00;98948.44;6241987;27;98533;-68
2023/08/23 11:41:14;;;;;;;;;35.00;30.00;;;;;35.66;100.00;98941.06;6247075;27;96853;-68
2023/08/23 11:44:18;;;;;;;;;32.50;30.00;;;;;35.66;100.00;98936.25;6280477;27;96349;-67
2023/08/23 11:47:24;;;;;;;;;33.00;28.00;;;;;35.56;100.00;98940.53;6286079;27;96848;-68
2023/08/23 11:50:29;;;;;;;;;31.80;28.80;;;;;35.79;100.00;98920.72;6287657;27;96325;-67
2023/08/23 11:53:32;;;;;;;;;30.40;28.00;;;;;35.77;100.00;98930.75;6253449;27;96841;-67
2023/08/23 11:56:39;;;;;;;;;33.00;29.40;;;;;35.62;100.00;98932.59;6284029;27;97505;-68
2023/08/23 11:59:42;;;;;;;;;30.00;28.80;;;;;35.62;100.00;98930.59;6286189;27;96342;-68
2023/08/23 12:02:45;;;;;;;;;30.40;28.40;;;;;35.33;100.00;98923.09;6286055;27;96704;-68
2023/08/23 12:05:49;;;;;;;;;31.60;30.00;;;;;35.42;100.00;98923.59;6267497;27;98378;-67
2023/08/23 12:08:52;;;;;;;;;33.00;30.00;;;;;35.57;100.00;98913.31;6283768;27;97127;-68
2023/08/23 12:11:59;;;;;;;;;30.00;28.00;;;;;35.63;100.00;98920.16;6285666;27;96529;-68
2023/08/23 12:15:02;;;;;;;;;32.20;30.00;;;;;35.41;100.00;98921.16;6261931;27;96247;-67
2023/08/23 12:18:06;;;;;;;;;29.50;25.50;;;;;35.58;100.00;98918.50;6288424;27;96898;-67
2023/08/23 12:21:09;;;;;;;;;26.60;25.60;;;;;35.95;100.00;98910.03;6269812;27;96875;-68
2023/08/23 12:24:12;;;;;;;;;31.00;27.75;;;;;36.09;100.00;98912.13;6264924;27;96368;-68
2023/08/23 12:27:17;;;;;;;;;32.20;26.80;;;;;35.88;100.00;98909.16;6275136;27;96572;-68
2023/08/23 12:30:20;;;;;;;;;27.00;24.00;;;;;35.69;100.00;98913.03;6268289;27;96939;-68
2023/08/23 12:33:23;;;;;;;;;29.00;26.40;;;;;35.82;100.00;98899.53;6274442;27;96351;-68
2023/08/23 12:36:26;;;;;;;;;27.80;25.20;;;;;35.72;100.00;98903.03;6267020;27;96707;-68
2023/08/23 12:39:30;;;;;;;;;27.80;24.00;;;;;35.56;100.00;98894.88;6236075;27;99497;-68
2023/08/23 12:42:35;;;;;;;;;26.50;24.00;;;;;35.47;100.00;98883.19;6268342;27;97145;-68
2023/08/23 12:45:39;;;;;;;;;28.50;25.00;;;;;35.47;100.00;98889.59;6288229;27;96471;-68
2023/08/23 12:48:42;;;;;;;;;25.00;23.00;;;;;35.57;100.00;98879.66;6253670;27;96650;-68
2023/08/23 12:51:46;;;;;;;;;25.80;24.00;;;;;35.64;100.00;98882.50;6271456;27;96025;-68
2023/08/23 12:54:49;;;;;;;;;26.40;23.00;;;;;35.94;100.00;98873.94;6260455;27;96390;-68
2023/08/23 12:57:54;;;;;;;;;28.60;25.00;;;;;36.23;100.00;98869.31;6244334;27;97864;-68
2023/08/23 13:00:57;;;;;;;;;27.00;24.00;;;;;36.10;100.00;98870.84;6268010;27;96799;-67
2023/08/23 13:04:04;;;;;;;;;24.60;22.60;;;;;35.65;100.00;98870.09;6252155;27;96982;-68
2023/08/23 13:07:07;;;;;;;;;26.00;22.60;;;;;35.46;100.00;98864.72;6248201;27;97032;-68
2023/08/23 13:10:10;;;;;;;;;27.40;23.80;;;;;35.48;100.00;98870.78;6286684;27;96325;-67
2023/08/23 13:13:15;;;;;;;;;28.00;24.00;;;;;35.58;100.00;98858.81;6243800;27;97189;-68
2023/08/23 13:16:18;;;;;;;;;24.20;24.00;;;;;35.41;100.00;98867.91;6268009;27;96565;-67
2023/08/23 13:19:22;;;;;;;;;26.60;24.60;;;;;35.37;100.00;98853.84;6268942;27;99161;-67
2023/08/23 13:22:27;;;;;;;;;24.00;23.00;;;;;35.20;100.00;98857.28;6288005;27;96430;-67
2023/08/23 13:25:30;;;;;;;;;27.40;24.80;;;;;35.19;100.00;98852.88;6286123;27;96450;-68
2023/08/23 13:28:34;;;;;;;;;29.00;26.40;;;;;35.37;100.00;98845.44;6274444;27;98331;-68
2023/08/23 13:31:37;;;;;;;;;27.40;25.20;;;;;35.48;100.00;98851.16;6260087;27;98467;-68
2023/08/23 13:34:41;;;;;;;;;27.60;25.00;;;;;35.50;100.00;98845.94;6284271;27;96382;-68
2023/08/23 13:37:44;;;;;;;;;28.20;25.60;;;;;35.70;100.00;98843.72;6249585;27;97843;-68
2023/08/23 13:40:47;;;;;;;;;27.00;25.00;;;;;35.84;100.00;98849.41;6268358;27;98474;-68
2023/08/23 13:43:52;;;;;;;;;26.00;25.60;;;;;36.04;100.00;98851.56;6284613;27;96534;-68
2023/08/23 13:46:55;;;;;;;;;27.00;26.40;;;;;35.89;100.00;98858.28;6270902;27;96899;-68
2023/08/23 13:49:58;;;;;;;;;28.00;26.00;;;;;35.97;100.00;98857.13;6285624;27;96638;-68
2023/08/23 13:53:01;;;;;;;;;25.40;24.40;;;;;35.91;100.00;98850.28;6267273;27;96767;-68
2023/08/23 13:56:05;;;;;;;;;27.80;27.00;;;;;35.71;100.00;98862.97;6266598;27;96820;-68
2023/08/23 13:59:09;;;;;;;;;26.20;23.80;;;;;35.47;100.00;98855.13;6283590;27;96826;-68